Time;durP1;ratioP1;P1;durP2;ratioP2;P2;SDS_P1;SDS_P2;PMS_P1;PMS_P2;Temp;Humidity;BMP_temperature;BMP_pressure;BME280_temperature;BME280_humidity;BME280_pressure;Samples;Min_cycle;Max_cycle;Signal;HPM_P1;HPM_P2
2021/04/13 00:02:20;;;;;;;5.77;4.23;;;3.00;99.90;;;;;;5092966;28;20212;-67
2021/04/13 00:04:51;;;;;;;5.10;3.90;;;3.00;99.90;;;;;;5094027;28;20181;-67
2021/04/13 00:07:21;;;;;;;4.93;4.23;;;3.10;99.90;;;;;;5093796;28;20187;-66
2021/04/13 00:09:48;;;;;;;5.40;4.00;;;3.10;99.90;;;;;;5093528;28;20205;-66
2021/04/13 00:12:18;;;;;;;5.13;4.30;;;2.90;99.90;;;;;;5093914;28;20274;-66
2021/04/13 00:14:49;;;;;;;5.70;4.43;;;3.00;99.90;;;;;;5093492;28;20277;-66
2021/04/13 00:17:19;;;;;;;5.90;4.37;;;3.10;99.90;;;;;;5093927;28;20224;-66
2021/04/13 00:19:50;;;;;;;7.40;4.60;;;3.10;99.90;;;;;;5093662;28;20239;-66
2021/04/13 00:22:18;;;;;;;4.80;4.33;;;3.00;99.90;;;;;;5093713;28;20255;-66
2021/04/13 00:24:45;;;;;;;5.87;4.77;;;3.00;99.90;;;;;;5093432;28;20216;-66
2021/04/13 00:27:14;;;;;;;7.07;4.80;;;2.90;99.90;;;;;;5093317;28;20312;-67
2021/04/13 00:29:43;;;;;;;5.00;4.50;;;3.00;99.90;;;;;;5093414;28;20199;-66
2021/04/13 00:32:11;;;;;;;5.13;4.60;;;2.90;99.90;;;;;;5093315;28;20726;-66
2021/04/13 00:34:46;;;;;;;5.97;4.97;;;2.90;99.90;;;;;;5093533;28;20295;-66
2021/04/13 00:37:21;;;;;;;6.87;4.50;;;2.80;99.90;;;;;;5093536;28;20189;-66
2021/04/13 00:39:48;;;;;;;5.40;4.90;;;2.90;99.90;;;;;;5093017;28;20638;-67
2021/04/13 00:42:25;;;;;;;5.43;4.70;;;2.90;99.90;;;;;;5093379;28;20448;-66
2021/04/13 00:44:56;;;;;;;6.63;5.27;;;2.90;99.90;;;;;;5093062;28;20184;-65
2021/04/13 00:47:26;;;;;;;5.47;4.97;;;2.90;99.90;;;;;;5093074;28;20279;-65
2021/04/13 00:49:56;;;;;;;6.03;5.10;;;3.00;99.90;;;;;;5093142;28;20219;-66
2021/04/13 00:52:32;;;;;;;6.20;4.57;;;2.90;99.90;;;;;;5092782;28;20202;-67
2021/04/13 00:55:01;;;;;;;5.87;5.03;;;2.90;99.90;;;;;;5093132;28;20192;-66
2021/04/13 00:57:33;;;;;;;6.60;4.63;;;2.90;99.90;;;;;;5093081;28;20200;-66
2021/04/13 01:00:04;;;;;;;6.27;5.00;;;2.90;99.90;;;;;;5092543;28;20279;-66
2021/04/13 01:02:33;;;;;;;8.87;5.00;;;2.90;99.90;;;;;;5093004;28;20226;-66
2021/04/13 01:05:06;;;;;;;6.87;5.03;;;2.80;99.90;;;;;;5092962;28;20207;-65
2021/04/13 01:07:35;;;;;;;5.80;5.07;;;2.80;99.90;;;;;;5092745;28;20188;-65
2021/04/13 01:10:10;;;;;;;7.07;5.37;;;2.80;99.90;;;;;;5093037;28;20196;-67
2021/04/13 01:12:39;;;;;;;6.10;5.27;;;2.70;99.90;;;;;;5092782;28;20180;-66
2021/04/13 01:15:11;;;;;;;6.13;5.23;;;2.60;99.90;;;;;;5092800;28;20200;-67
2021/04/13 01:17:38;;;;;;;5.57;5.03;;;2.60;99.90;;;;;;5092568;28;20188;-66
2021/04/13 01:20:13;;;;;;;7.10;5.23;;;2.50;99.90;;;;;;5092697;28;20208;-66
2021/04/13 01:22:47;;;;;;;6.57;5.53;;;2.50;99.90;;;;;;5092035;28;20228;-66
2021/04/13 01:25:20;;;;;;;6.10;5.47;;;2.30;99.90;;;;;;5092866;28;20211;-66
2021/04/13 01:27:49;;;;;;;6.03;5.43;;;2.20;99.90;;;;;;5092395;28;20288;-67
2021/04/13 01:30:19;;;;;;;6.07;5.47;;;2.20;99.90;;;;;;5092580;28;20640;-66
2021/04/13 01:32:46;;;;;;;6.17;5.57;;;2.10;99.90;;;;;;5092830;28;20203;-66
2021/04/13 01:35:15;;;;;;;5.90;5.30;;;2.20;99.90;;;;;;5092489;28;20286;-67
2021/04/13 01:37:57;;;;;;;5.63;5.00;;;2.10;99.90;;;;;;5092305;28;20204;-66
2021/04/13 01:40:30;;;;;;;6.77;5.47;;;2.10;99.90;;;;;;5092796;28;20278;-67
2021/04/13 01:42:58;;;;;;;8.43;6.43;;;2.20;99.90;;;;;;5092681;28;20204;-67
2021/04/13 01:45:30;;;;;;;6.10;5.50;;;2.30;99.90;;;;;;5092472;28;20202;-66
2021/04/13 01:47:58;;;;;;;6.93;6.20;;;2.30;99.90;;;;;;5092490;28;20676;-65
2021/04/13 01:50:27;;;;;;;7.37;6.57;;;2.10;99.90;;;;;;5092554;28;20200;-66
2021/04/13 01:53:03;;;;;;;9.30;6.60;;;2.10;99.90;;;;;;5092265;28;20293;-65
2021/04/13 01:55:32;;;;;;;7.77;5.97;;;2.20;99.90;;;;;;5092359;28;20275;-67
2021/04/13 01:58:08;;;;;;;6.10;5.50;;;2.20;99.90;;;;;;5092627;28;20207;-67
2021/04/13 02:00:43;;;;;;;6.53;5.27;;;2.30;99.90;;;;;;5092515;28;20188;-67
2021/04/13 02:03:14;;;;;;;6.33;5.13;;;2.30;99.90;;;;;;5092463;28;20299;-65
2021/04/13 02:05:45;;;;;;;6.07;5.47;;;2.20;99.90;;;;;;5092201;28;20275;-66
2021/04/13 02:08:18;;;;;;;6.83;5.47;;;2.10;99.90;;;;;;5092319;28;20185;-65
2021/04/13 02:10:53;;;;;;;7.10;5.90;;;2.10;99.90;;;;;;5092281;28;20621;-66
2021/04/13 02:13:27;;;;;;;6.30;5.67;;;2.10;99.90;;;;;;5092509;28;20257;-67
2021/04/13 02:16:01;;;;;;;6.60;5.90;;;2.00;99.90;;;;;;5092402;28;20321;-66
2021/04/13 02:18:33;;;;;;;6.60;5.93;;;2.00;99.90;;;;;;5092125;28;20720;-66
2021/04/13 02:21:04;;;;;;;6.47;5.77;;;1.80;99.90;;;;;;5092021;28;20281;-67
2021/04/13 02:23:33;;;;;;;6.50;5.77;;;1.80;99.90;;;;;;5092157;28;20267;-66
2021/04/13 02:26:05;;;;;;;6.73;5.80;;;1.70;99.90;;;;;;5095514;28;20552;-66
2021/04/13 02:28:35;;;;;;;7.77;6.10;;;1.60;99.90;;;;;;5095864;28;20249;-65
2021/04/13 02:31:08;;;;;;;7.10;6.40;;;1.70;99.90;;;;;;5095785;28;20696;-67
2021/04/13 02:33:38;;;;;;;6.20;5.60;;;1.60;99.90;;;;;;5095911;28;20575;-67
2021/04/13 02:36:14;;;;;;;6.60;5.57;;;1.70;99.90;;;;;;5095714;28;20185;-67
2021/04/13 02:38:47;;;;;;;10.03;6.50;;;1.70;99.90;;;;;;5095753;28;20246;-66
2021/04/13 02:41:19;;;;;;;7.13;6.27;;;1.60;99.90;;;;;;5095571;28;20269;-66
2021/04/13 02:43:50;;;;;;;6.43;5.83;;;1.80;99.90;;;;;;5095700;28;20225;-66
2021/04/13 02:46:23;;;;;;;7.17;6.27;;;1.80;99.90;;;;;;5095434;28;20192;-66
2021/04/13 02:49:01;;;;;;;8.30;6.10;;;1.80;99.90;;;;;;5095496;28;20201;-67
2021/04/13 02:51:29;;;;;;;7.57;6.30;;;1.80;99.90;;;;;;5095341;28;20207;-66
2021/04/13 02:53:58;;;;;;;8.90;6.73;;;1.80;99.90;;;;;;5095374;28;20298;-66
2021/04/13 02:56:28;;;;;;;7.60;6.83;;;1.80;99.90;;;;;;5095252;28;20619;-66
2021/04/13 02:59:15;;;;;;;6.97;6.27;;;1.70;99.90;;;;;;5094999;28;20723;-66
2021/04/13 03:01:50;;;;;;;7.47;6.67;;;1.60;99.90;;;;;;5095020;28;20204;-67
2021/04/13 03:04:18;;;;;;;7.37;6.60;;;1.50;99.90;;;;;;5095306;28;20237;-66
2021/04/13 03:06:48;;;;;;;7.77;6.93;;;1.60;99.90;;;;;;5094472;28;20717;-66
2021/04/13 03:09:18;;;;;;;8.30;7.50;;;1.60;99.90;;;;;;5094760;28;20235;-66
2021/04/13 03:11:47;;;;;;;9.17;7.07;;;1.60;99.90;;;;;;5095049;28;20196;-66
2021/04/13 03:14:16;;;;;;;8.50;7.13;;;1.50;99.90;;;;;;5094741;28;20208;-66
2021/04/13 03:16:46;;;;;;;7.93;7.03;;;1.50;99.90;;;;;;5094828;28;20200;-65
2021/04/13 03:19:17;;;;;;;7.77;6.70;;;1.50;99.90;;;;;;5094641;28;20200;-66
2021/04/13 03:21:49;;;;;;;8.10;7.10;;;1.50;99.90;;;;;;5094417;28;20201;-66
2021/04/13 03:24:19;;;;;;;7.63;6.83;;;1.40;99.90;;;;;;5094868;28;20189;-66
2021/04/13 03:26:50;;;;;;;8.53;7.67;;;1.50;99.90;;;;;;5094611;28;20316;-67
2021/04/13 03:29:20;;;;;;;8.80;7.53;;;1.50;99.90;;;;;;5094082;28;20854;-66
2021/04/13 03:31:49;;;;;;;9.43;7.33;;;1.60;99.90;;;;;;5094492;28;20211;-66
2021/04/13 03:34:18;;;;;;;8.60;7.70;;;1.60;99.90;;;;;;5094699;28;20430;-66
2021/04/13 03:36:47;;;;;;;9.80;8.63;;;1.50;99.90;;;;;;5094076;28;20590;-65
2021/04/13 03:39:18;;;;;;;9.73;8.27;;;1.40;99.90;;;;;;5094584;28;20204;-66
2021/04/13 03:41:47;;;;;;;9.97;8.37;;;1.50;99.90;;;;;;5094215;28;20304;-66
2021/04/13 03:44:17;;;;;;;9.63;8.33;;;1.50;99.90;;;;;;5094105;28;20698;-66
2021/04/13 03:46:45;;;;;;;11.13;9.23;;;1.50;99.90;;;;;;5094297;28;20289;-66
2021/04/13 03:49:18;;;;;;;9.83;8.80;;;1.50;99.90;;;;;;5094599;28;20260;-66
2021/04/13 03:51:48;;;;;;;12.00;9.33;;;1.50;99.90;;;;;;5097309;28;20794;-66
2021/04/13 03:54:21;;;;;;;10.03;8.27;;;1.30;99.90;;;;;;5098314;28;20287;-66
2021/04/13 03:56:49;;;;;;;9.93;8.53;;;1.30;99.90;;;;;;5096023;28;20212;-65
2021/04/13 03:59:20;;;;;;;10.80;9.00;;;1.40;99.90;;;;;;5094299;28;20290;-65
2021/04/13 04:01:47;;;;;;;10.37;9.03;;;1.40;99.90;;;;;;5094116;28;20302;-66
2021/04/13 04:04:31;;;;;;;10.53;9.17;;;1.50;99.90;;;;;;5094221;28;20287;-66
2021/04/13 04:07:00;;;;;;;10.67;9.17;;;1.50;99.90;;;;;;5093415;28;20620;-66
2021/04/13 04:09:37;;;;;;;12.13;9.00;;;1.50;99.90;;;;;;5094047;28;20200;-66
2021/04/13 04:12:16;;;;;;;13.93;9.53;;;1.40;99.90;;;;;;5093950;28;20262;-67
2021/04/13 04:14:56;;;;;;;15.00;10.17;;;1.30;99.90;;;;;;5093956;28;20276;-66
2021/04/13 04:17:23;;;;;;;11.03;9.47;;;1.30;99.90;;;;;;5093691;28;20290;-66
2021/04/13 04:19:56;;;;;;;12.97;9.67;;;1.30;99.90;;;;;;5093757;28;20204;-66
2021/04/13 04:22:24;;;;;;;11.77;9.90;;;1.30;99.90;;;;;;5093423;28;20222;-66
2021/04/13 04:24:52;;;;;;;13.57;9.73;;;1.30;99.90;;;;;;5093402;28;20222;-66
2021/04/13 04:27:31;;;;;;;11.23;9.03;;;1.50;99.90;;;;;;5093220;28;20816;-66
2021/04/13 04:30:10;;;;;;;13.03;11.47;;;1.50;99.90;;;;;;5093672;28;20190;-66
2021/04/13 04:32:41;;;;;;;13.43;10.30;;;1.60;99.90;;;;;;5094806;28;20221;-67
2021/04/13 04:35:11;;;;;;;15.20;11.63;;;1.70;99.90;;;;;;5093989;28;20191;-66
2021/04/13 04:37:59;;;;;;;12.53;10.03;;;1.70;99.90;;;;;;5093773;28;20200;-66
2021/04/13 04:40:39;;;;;;;12.43;10.60;;;1.70;99.90;;;;;;5093699;28;20186;-66
2021/04/13 04:43:11;;;;;;;12.87;10.83;;;1.70;99.90;;;;;;5093401;28;20299;-66
2021/04/13 04:45:51;;;;;;;12.30;10.20;;;1.60;99.90;;;;;;5093529;28;20271;-66
2021/04/13 04:48:21;;;;;;;11.40;9.93;;;1.60;99.90;;;;;;5092976;28;20184;-66
2021/04/13 04:50:50;;;;;;;12.23;10.77;;;1.50;99.90;;;;;;5093005;28;20286;-66
2021/04/13 04:53:18;;;;;;;11.47;10.23;;;1.50;99.90;;;;;;5093348;28;20290;-60
2021/04/13 04:55:48;;;;;;;11.87;10.37;;;1.50;99.90;;;;;;5093080;28;20296;-59
2021/04/13 04:58:15;;;;;;;11.13;9.90;;;1.60;99.90;;;;;;5093085;28;20200;-59
2021/04/13 05:00:42;;;;;;;12.77;9.83;;;1.80;99.90;;;;;;5093077;28;20267;-59
2021/04/13 05:03:09;;;;;;;12.17;10.07;;;1.70;99.90;;;;;;5092601;28;20326;-60
2021/04/13 05:05:36;;;;;;;12.40;9.73;;;1.70;99.90;;;;;;5092368;28;20580;-60
2021/04/13 05:08:04;;;;;;;13.00;11.00;;;1.80;99.90;;;;;;5092605;28;20681;-59
2021/04/13 05:10:31;;;;;;;10.57;9.17;;;1.80;99.90;;;;;;5092786;28;20200;-59
2021/04/13 05:12:58;;;;;;;15.80;11.77;;;1.80;99.90;;;;;;5092387;28;20291;-59
2021/04/13 05:15:25;;;;;;;15.27;12.10;;;1.80;99.90;;;;;;5092537;28;20296;-60
2021/04/13 05:17:51;;;;;;;12.60;9.70;;;1.90;99.90;;;;;;5092658;28;20316;-58
2021/04/13 05:20:19;;;;;;;11.77;10.43;;;1.90;99.90;;;;;;5091823;28;20210;-58
2021/04/13 05:22:46;;;;;;;12.80;9.87;;;2.00;99.90;;;;;;5092550;28;20215;-59
2021/04/13 05:25:15;;;;;;;12.10;9.90;;;2.10;99.90;;;;;;5092209;28;20636;-60
2021/04/13 05:27:42;;;;;;;12.53;10.60;;;2.20;99.90;;;;;;5091865;28;20241;-60
2021/04/13 05:30:12;;;;;;;11.73;10.00;;;2.20;99.90;;;;;;5092495;28;20200;-60
2021/04/13 05:32:39;;;;;;;11.13;9.90;;;2.20;99.90;;;;;;5092481;28;20282;-59
2021/04/13 05:35:07;;;;;;;11.97;10.07;;;2.30;99.90;;;;;;5092068;28;20303;-59
2021/04/13 05:37:34;;;;;;;15.37;10.50;;;2.30;99.90;;;;;;5092540;28;20279;-59
2021/04/13 05:40:04;;;;;;;13.00;10.10;;;2.40;99.90;;;;;;5092443;28;20206;-59
2021/04/13 05:42:34;;;;;;;12.37;10.33;;;2.50;99.90;;;;;;5092466;28;20295;-59
2021/04/13 05:45:01;;;;;;;12.27;10.27;;;2.60;99.90;;;;;;5092144;28;20228;-60
2021/04/13 05:47:32;;;;;;;13.40;10.77;;;2.60;99.90;;;;;;5092143;28;20706;-60
2021/04/13 05:49:58;;;;;;;13.43;10.27;;;2.60;99.90;;;;;;5091803;28;20283;-59
2021/04/13 05:52:25;;;;;;;12.93;10.70;;;2.70;99.90;;;;;;5091858;28;20563;-59
2021/04/13 05:54:52;;;;;;;13.53;11.13;;;2.80;99.90;;;;;;5092199;28;20307;-59
2021/04/13 05:57:24;;;;;;;13.73;10.43;;;2.90;99.90;;;;;;5092008;28;20291;-59
2021/04/13 05:59:53;;;;;;;11.73;10.30;;;3.00;99.90;;;;;;5093965;28;20187;-59
2021/04/13 06:02:20;;;;;;;12.07;10.70;;;3.00;99.90;;;;;;5095582;28;20223;-59
2021/04/13 06:04:50;;;;;;;13.07;11.07;;;3.10;99.90;;;;;;5095566;28;20224;-59
2021/04/13 06:07:17;;;;;;;13.07;10.10;;;3.40;99.90;;;;;;5095168;28;20310;-58
2021/04/13 06:09:44;;;;;;;12.37;10.13;;;3.60;99.90;;;;;;5096093;28;20200;-59
2021/04/13 06:12:12;;;;;;;12.83;10.17;;;3.80;99.90;;;;;;5095516;28;20301;-60
2021/04/13 06:14:41;;;;;;;12.33;10.10;;;3.90;99.90;;;;;;5095884;28;20211;-59
2021/04/13 06:17:09;;;;;;;11.53;10.03;;;3.80;99.90;;;;;;5095826;28;20205;-60
2021/04/13 06:19:36;;;;;;;11.63;9.27;;;3.90;99.90;;;;;;5095666;28;20314;-59
2021/04/13 06:22:04;;;;;;;14.13;10.60;;;3.90;99.90;;;;;;5095526;28;20228;-59
2021/04/13 06:24:31;;;;;;;15.13;11.03;;;3.90;99.90;;;;;;5095704;28;20231;-59
2021/04/13 06:26:58;;;;;;;14.33;10.87;;;4.00;99.90;;;;;;5095334;28;20321;-59
2021/04/13 06:29:34;;;;;;;12.53;10.60;;;4.10;99.90;;;;;;5095303;28;20205;-60
2021/04/13 06:32:01;;;;;;;11.90;9.67;;;4.10;99.90;;;;;;5095356;28;20223;-59
2021/04/13 06:34:28;;;;;;;13.33;10.77;;;4.20;99.90;;;;;;5094846;28;20327;-59
2021/04/13 06:36:56;;;;;;;11.63;10.00;;;4.40;99.90;;;;;;5095084;28;20205;-60
2021/04/13 06:39:24;;;;;;;12.03;9.73;;;4.40;99.90;;;;;;5095452;28;20200;-59
2021/04/13 06:42:04;;;;;;;13.37;10.50;;;4.40;99.90;;;;;;5094920;28;20637;-59
2021/04/13 06:45:07;;;;;;;12.50;10.17;;;4.40;99.90;;;;;;5095246;28;20234;-58
2021/04/13 06:47:43;;;;;;;11.87;9.87;;;4.50;99.90;;;;;;5095344;28;20212;-56
2021/04/13 06:50:21;;;;;;;12.03;10.73;;;4.60;99.90;;;;;;5094736;28;20220;-59
2021/04/13 06:52:58;;;;;;;14.53;11.67;;;4.60;99.90;;;;;;5094841;28;20695;-58
2021/04/13 06:55:45;;;;;;;15.87;12.20;;;4.50;99.90;;;;;;5092440;28;20295;-59
2021/04/13 06:58:23;;;;;;;14.63;10.50;;;4.50;99.90;;;;;;5094089;28;20276;-59
2021/04/13 07:00:59;;;;;;;16.33;12.03;;;4.60;99.90;;;;;;5092039;28;20250;-56
2021/04/13 07:03:31;;;;;;;14.93;11.20;;;4.60;99.90;;;;;;5091401;28;20292;-57
2021/04/13 07:06:10;;;;;;;12.77;10.50;;;4.70;99.90;;;;;;5090492;28;20282;-58
2021/04/13 07:08:41;;;;;;;11.93;9.43;;;4.70;99.90;;;;;;5091498;28;20245;-56
2021/04/13 07:11:18;;;;;;;11.23;9.13;;;4.80;99.90;;;;;;5090111;28;20221;-57
2021/04/13 07:13:50;;;;;;;10.10;8.30;;;4.90;99.90;;;;;;5091746;28;20184;-59
2021/04/13 07:16:23;;;;;;;10.80;8.60;;;5.00;99.90;;;;;;5071234;28;20217;-56
2021/04/13 07:19:00;;;;;;;12.13;8.90;;;4.90;99.90;;;;;;5077229;28;20233;-58
2021/04/13 07:21:38;;;;;;;9.87;8.00;;;4.90;99.90;;;;;;5091643;28;20272;-60
2021/04/13 07:24:13;;;;;;;10.97;7.80;;;4.90;99.90;;;;;;5091341;28;20307;-60
2021/04/13 07:26:44;;;;;;;10.23;8.20;;;5.00;99.90;;;;;;5091212;28;20326;-58
2021/04/13 07:29:18;;;;;;;9.37;8.00;;;4.90;99.90;;;;;;5091625;28;20185;-60
2021/04/13 07:31:53;;;;;;;10.33;8.33;;;4.90;99.90;;;;;;5091099;28;20696;-59
2021/04/13 07:34:21;;;;;;;10.27;7.77;;;5.00;99.90;;;;;;5090365;28;20188;-60
2021/04/13 07:36:56;;;;;;;9.50;8.17;;;5.10;99.90;;;;;;5091356;28;20561;-60
2021/04/13 07:39:25;;;;;;;10.93;7.40;;;5.30;99.90;;;;;;5091428;28;20214;-60
2021/04/13 07:41:57;;;;;;;9.17;7.13;;;5.30;99.90;;;;;;5090676;28;20269;-60
2021/04/13 07:44:34;;;;;;;7.93;6.27;;;5.40;99.90;;;;;;5090558;28;20293;-60
2021/04/13 07:47:18;;;;;;;8.00;6.23;;;5.40;99.90;;;;;;5090980;28;20210;-60
2021/04/13 07:49:50;;;;;;;8.73;5.30;;;5.50;99.90;;;;;;5090383;28;20652;-59
2021/04/13 07:52:39;;;;;;;8.63;6.00;;;5.50;99.90;;;;;;5090749;28;20191;-56
2021/04/13 07:55:15;;;;;;;7.37;5.60;;;5.60;99.90;;;;;;5090708;28;20184;-53
2021/04/13 07:57:46;;;;;;;7.47;4.53;;;5.80;99.90;;;;;;5090995;28;20549;-54
2021/04/13 08:00:19;;;;;;;8.40;5.17;;;5.90;99.90;;;;;;5090617;28;20187;-60
2021/04/13 08:02:57;;;;;;;7.70;5.20;;;6.30;99.90;;;;;;5091590;28;20213;-62
2021/04/13 08:05:42;;;;;;;5.50;3.83;;;6.60;99.90;;;;;;5091250;28;20272;-60
2021/04/13 08:08:21;;;;;;;6.37;3.93;;;7.00;99.90;;;;;;5090286;28;20191;-59
2021/04/13 08:10:48;;;;;;;5.80;4.07;;;7.20;99.90;;;;;;5090758;28;20209;-59
2021/04/13 08:13:29;;;;;;;6.07;3.50;;;7.40;99.90;;;;;;5090142;28;20758;-57
2021/04/13 08:15:56;;;;;;;5.43;3.00;;;7.40;99.90;;;;;;5090410;28;20283;-58
2021/04/13 08:18:37;;;;;;;3.53;2.53;;;7.60;99.90;;;;;;5089929;28;20199;-56
2021/04/13 08:21:18;;;;;;;4.87;2.50;;;7.50;99.90;;;;;;5085611;28;20283;-60
2021/04/13 08:23:46;;;;;;;3.70;1.90;;;7.60;99.90;;;;;;5069677;28;20201;-60
2021/04/13 08:26:41;;;;;;;3.37;1.90;;;7.70;99.90;;;;;;5069877;28;20302;-59
2021/04/13 08:29:16;;;;;;;3.97;2.47;;;7.60;99.90;;;;;;5070206;28;20272;-59
2021/04/13 08:34:47;;;;;;;4.93;2.37;;;7.00;99.90;;;;;;5069619;28;20290;-60
2021/04/13 08:37:27;;;;;;;3.60;2.33;;;6.90;99.90;;;;;;5069790;28;20198;-57
2021/04/13 08:40:15;;;;;;;3.30;2.03;;;6.90;99.90;;;;;;5069713;28;20202;-57
2021/04/13 08:42:47;;;;;;;6.30;2.10;;;7.20;99.90;;;;;;5069738;28;20199;-58
2021/04/13 08:45:19;;;;;;;3.87;2.20;;;7.40;99.90;;;;;;5069424;28;20584;-58
2021/04/13 08:47:51;;;;;;;4.50;2.40;;;7.50;99.90;;;;;;5069741;28;20581;-60
2021/04/13 08:50:31;;;;;;;3.97;2.60;;;7.90;99.90;;;;;;5069675;28;20566;-60
2021/04/13 08:53:02;;;;;;;3.63;2.57;;;8.00;99.90;;;;;;5069627;28;20276;-61
2021/04/13 08:55:48;;;;;;;3.20;2.37;;;8.10;99.90;;;;;;5069159;28;20181;-59
2021/04/13 08:58:37;;;;;;;4.40;2.20;;;8.30;99.90;;;;;;5069219;28;20586;-59
2021/04/13 09:01:25;;;;;;;3.87;2.20;;;8.60;99.90;;;;;;5069625;28;20184;-58
2021/04/13 09:03:52;;;;;;;4.30;2.90;;;8.80;99.90;;;;;;5069411;28;20308;-60
2021/04/13 09:06:28;;;;;;;4.13;2.87;;;8.90;99.90;;;;;;5068852;28;20297;-60
2021/04/13 09:09:03;;;;;;;4.27;2.80;;;9.00;99.90;;;;;;5069504;28;20603;-59
2021/04/13 09:11:45;;;;;;;4.00;2.57;;;8.70;99.90;;;;;;5069354;28;20271;-60
2021/04/13 09:14:24;;;;;;;2.80;2.33;;;8.70;99.90;;;;;;5069562;28;20193;-60
2021/04/13 09:16:57;;;;;;;3.30;2.90;;;8.80;99.90;;;;;;5069477;28;20272;-59
2021/04/13 09:19:31;;;;;;;4.53;2.50;;;9.00;99.90;;;;;;5082396;28;20246;-59
2021/04/13 09:22:13;;;;;;;2.70;2.03;;;9.10;99.90;;;;;;5089530;28;20271;-59
2021/04/13 09:24:42;;;;;;;2.83;1.83;;;9.30;99.90;;;;;;5089105;28;20299;-59
2021/04/13 09:27:32;;;;;;;4.33;2.30;;;9.20;99.90;;;;;;5089447;28;20223;-64
2021/04/13 09:30:28;;;;;;;3.47;2.10;;;9.00;99.90;;;;;;5089313;28;20220;-68
2021/04/13 09:33:05;;;;;;;6.77;1.57;;;8.90;99.90;;;;;;5089376;28;20191;-67
2021/04/13 09:35:50;;;;;;;3.53;1.70;;;8.60;99.90;;;;;;5093294;28;20184;-67
2021/04/13 09:38:41;;;;;;;2.93;1.33;;;8.40;99.90;;;;;;5093561;28;20283;-68
2021/04/13 09:41:18;;;;;;;3.30;1.43;;;8.50;99.90;;;;;;5093148;28;20196;-68
2021/04/13 09:43:57;;;;;;;2.43;1.50;;;9.00;99.90;;;;;;5093530;28;20334;-67
2021/04/13 09:46:30;;;;;;;2.73;1.50;;;9.10;99.90;;;;;;5093385;28;20184;-66
2021/04/13 09:49:31;;;;;;;5.10;1.87;;;9.20;99.90;;;;;;5093482;28;20190;-68
2021/04/13 09:52:28;;;;;;;2.60;1.70;;;9.10;99.90;;;;;;5093051;28;20220;-68
2021/04/13 09:55:05;;;;;;;3.47;1.67;;;8.80;99.90;;;;;;5088124;28;20299;-68
2021/04/13 09:58:03;;;;;;;4.23;1.67;;;8.40;99.90;;;;;;5093441;28;20215;-70
2021/04/13 10:00:49;;;;;;;5.23;1.60;;;8.40;99.90;;;;;;5093250;28;20188;-69
2021/04/13 10:03:47;;;;;;;4.80;1.30;;;8.60;99.90;;;;;;5093466;28;20204;-69
2021/04/13 10:06:15;;;;;;;2.33;1.17;;;8.80;99.90;;;;;;5093063;28;20216;-69
2021/04/13 10:08:48;;;;;;;6.10;1.20;;;9.10;99.90;;;;;;5093281;28;20294;-76
2021/04/13 10:11:36;;;;;;;3.70;1.17;;;9.30;99.90;;;;;;5093432;28;20200;-63
2021/04/13 10:14:51;;;;;;;1.47;1.10;;;9.40;99.90;;;;;;5092620;28;20206;-64
2021/04/13 10:17:30;;;;;;;2.47;1.30;;;9.10;99.90;;;;;;5074718;28;20598;-64
2021/04/13 10:20:17;;;;;;;5.30;1.20;;;9.00;99.90;;;;;;5092518;28;20797;-65
2021/04/13 10:22:55;;;;;;;3.53;1.10;;;8.90;99.90;;;;;;5092608;28;20275;-69
2021/04/13 10:26:04;;;;;;;3.73;1.40;;;8.90;99.90;;;;;;5092139;28;20675;-68
2021/04/13 10:29:02;;;;;;;3.17;1.43;;;8.90;99.90;;;;;;5088699;28;20635;-64
2021/04/13 10:32:07;;;;;;;3.10;1.10;;;9.10;99.90;;;;;;5092617;28;20263;-69
2021/04/13 10:35:11;;;;;;;3.30;1.30;;;9.30;99.90;;;;;;5092545;28;20184;-68
2021/04/13 10:38:23;;;;;;;4.47;1.27;;;9.20;99.90;;;;;;5092352;28;20298;-66
2021/04/13 10:41:34;;;;;;;3.73;1.40;;;9.20;99.90;;;;;;5092195;28;20200;-65
2021/04/13 10:44:36;;;;;;;3.53;1.20;;;9.20;99.90;;;;;;5091896;28;20275;-67
2021/04/13 10:47:22;;;;;;;1.50;1.37;;;8.90;99.90;;;;;;5058420;28;20656;-66
2021/04/13 10:50:16;;;;;;;1.93;1.40;;;9.00;99.90;;;;;;5091442;28;20275;-66
2021/04/13 10:53:02;;;;;;;3.53;1.57;;;9.10;99.90;;;;;;5092233;28;20327;-66
2021/04/13 10:55:40;;;;;;;3.27;1.60;;;9.40;99.90;;;;;;5088394;28;20575;-66
2021/04/13 10:58:40;;;;;;;3.13;1.87;;;9.60;99.90;;;;;;5089199;28;20279;-65
2021/04/13 11:01:47;;;;;;;3.60;1.93;;;9.70;99.90;;;;;;5091316;28;20200;-66
2021/04/13 11:05:08;;;;;;;2.60;1.70;;;9.90;99.90;;;;;;5090460;28;20243;-66
2021/04/13 11:08:14;;;;;;;2.57;1.40;;;10.10;99.90;;;;;;5091511;28;20286;-66
2021/04/13 11:11:30;;;;;;;4.73;1.47;;;10.00;99.90;;;;;;5091403;28;20196;-67
2021/04/13 11:14:29;;;;;;;5.03;1.63;;;9.60;99.90;;;;;;5091602;28;20226;-62
2021/04/13 11:17:48;;;;;;;4.20;1.93;;;9.20;99.90;;;;;;5091081;28;20246;-62
2021/04/13 11:20:24;;;;;;;3.50;1.53;;;9.10;99.90;;;;;;5070823;28;20181;-63
2021/04/13 11:23:31;;;;;;;1.90;1.20;;;9.10;99.90;;;;;;5070795;28;20188;-70
2021/04/13 11:26:36;;;;;;;2.37;1.33;;;9.20;99.90;;;;;;5071211;28;20239;-69
2021/04/13 11:29:26;;;;;;;2.97;1.43;;;9.40;99.90;;;;;;5071546;28;20200;-71
2021/04/13 11:32:36;;;;;;;4.57;1.47;;;9.60;99.90;;;;;;5071087;28;20207;-69
2021/04/13 11:35:18;;;;;;;2.13;1.20;;;9.80;99.90;;;;;;5071053;28;20664;-69
2021/04/13 11:38:11;;;;;;;3.03;1.43;;;9.90;99.90;;;;;;5070863;28;20216;-66
2021/04/13 11:41:08;;;;;;;4.60;1.90;;;9.90;99.90;;;;;;5052095;28;20211;-64
2021/04/13 11:43:41;;;;;;;5.27;1.60;;;9.70;99.90;;;;;;5070826;28;20241;-64
2021/04/13 11:46:12;;;;;;;4.80;1.40;;;9.60;99.90;;;;;;5074727;28;20239;-64
2021/04/13 11:48:45;;;;;;;2.50;1.40;;;9.30;99.90;;;;;;5072766;28;20216;-65
2021/04/13 11:51:19;;;;;;;2.80;1.90;;;9.10;99.90;;;;;;5070807;28;20252;-60
2021/04/13 11:53:48;;;;;;;5.33;1.90;;;9.40;99.90;;;;;;5070903;28;20215;-60
2021/04/13 11:56:36;;;;;;;3.07;1.60;;;9.70;99.90;;;;;;5070456;28;20207;-73
2021/04/13 11:59:22;;;;;;;4.23;1.70;;;9.90;99.90;;;;;;5070547;28;20524;-68
2021/04/13 12:01:52;;;;;;;3.33;1.60;;;9.90;99.90;;;;;;5083288;28;20275;-70
2021/04/13 12:04:22;;;;;;;2.70;1.80;;;9.90;99.90;;;;;;5086385;28;20203;-66
2021/04/13 12:06:56;;;;;;;3.57;1.73;;;10.00;99.90;;;;;;5089050;28;20189;-64
2021/04/13 12:09:49;;;;;;;3.77;2.10;;;9.80;99.90;;;;;;5087050;28;20194;-68
2021/04/13 12:12:49;;;;;;;4.07;2.00;;;9.70;99.90;;;;;;5087776;28;20573;-68
2021/04/13 12:15:40;;;;;;;1.93;1.30;;;9.50;99.90;;;;;;5088225;28;20239;-68
2021/04/13 12:18:59;;;;;;;1.67;1.10;;;9.60;99.90;;;;;;5090245;28;20238;-66
2021/04/13 12:22:00;;;;;;;4.07;1.40;;;10.00;99.90;;;;;;5027434;28;20206;-67
2021/04/13 12:24:52;;;;;;;3.07;1.30;;;10.80;99.90;;;;;;5027450;28;20242;-59
2021/04/13 12:27:42;;;;;;;2.17;1.33;;;11.40;99.90;;;;;;5080666;28;20293;-61
2021/04/13 12:30:49;;;;;;;2.37;1.43;;;11.70;99.90;;;;;;5090118;28;20278;-61
2021/04/13 12:33:50;;;;;;;3.17;1.43;;;11.70;99.90;;;;;;5089628;28;20184;-61
2021/04/13 12:36:44;;;;;;;2.17;1.80;;;11.40;99.90;;;;;;5065125;28;20195;-61
2021/04/13 12:39:32;;;;;;;4.63;2.33;;;10.90;99.90;;;;;;5090167;28;20533;-60
2021/04/13 12:42:01;;;;;;;3.83;2.20;;;10.50;99.90;;;;;;5089678;28;20235;-57
2021/04/13 12:44:28;;;;;;;4.17;1.90;;;10.20;99.90;;;;;;5089333;28;20819;-58
2021/04/13 12:46:57;;;;;;;2.67;1.87;;;10.30;99.90;;;;;;5089690;28;20250;-56
2021/04/13 12:49:32;;;;;;;2.73;1.53;;;10.40;99.90;;;;;;5089557;28;20232;-60
2021/04/13 12:52:01;;;;;;;3.77;1.90;;;10.50;99.90;;;;;;5089661;28;20271;-60
2021/04/13 12:54:31;;;;;;;3.83;2.10;;;10.40;99.90;;;;;;5089613;28;20306;-60
2021/04/13 12:57:07;;;;;;;3.90;2.53;;;10.40;99.90;;;;;;5089827;28;20265;-58
2021/04/13 12:59:35;;;;;;;2.93;2.13;;;10.00;99.90;;;;;;5089030;28;20192;-60
2021/04/13 13:02:04;;;;;;;3.03;2.47;;;9.90;99.90;;;;;;5089612;28;20214;-60
2021/04/13 13:04:37;;;;;;;4.27;2.47;;;10.20;99.90;;;;;;5089315;28;20215;-60
2021/04/13 13:07:06;;;;;;;2.37;2.13;;;10.30;99.90;;;;;;5089762;28;20290;-59
2021/04/13 13:09:36;;;;;;;3.17;2.37;;;10.20;99.90;;;;;;5089302;28;20218;-59
2021/04/13 13:12:08;;;;;;;3.10;2.47;;;10.20;99.90;;;;;;5089353;28;20235;-60
2021/04/13 13:14:39;;;;;;;4.87;2.37;;;10.20;99.90;;;;;;5088549;28;20291;-59
2021/04/13 13:17:07;;;;;;;3.60;2.87;;;10.40;99.90;;;;;;5088636;28;20234;-60
2021/04/13 13:19:42;;;;;;;6.00;3.10;;;10.60;99.90;;;;;;5089097;28;20206;-60
2021/04/13 13:22:13;;;;;;;4.03;2.57;;;10.80;99.90;;;;;;5089021;28;20192;-60
2021/04/13 13:24:40;;;;;;;4.90;2.20;;;10.90;99.90;;;;;;5089371;28;20291;-60
2021/04/13 13:27:19;;;;;;;2.67;2.17;;;11.10;99.90;;;;;;5089007;28;20318;-59
2021/04/13 13:29:47;;;;;;;2.27;1.90;;;11.20;99.90;;;;;;5089139;28;20552;-59
2021/04/13 13:32:16;;;;;;;4.43;2.20;;;11.40;99.90;;;;;;5089232;28;20304;-58
2021/04/13 13:34:43;;;;;;;4.30;2.40;;;11.50;99.90;;;;;;5088796;28;20614;-61
2021/04/13 13:37:13;;;;;;;4.77;2.50;;;11.50;99.90;;;;;;5088902;28;20227;-60
2021/04/13 13:39:41;;;;;;;2.50;2.30;;;11.50;99.90;;;;;;5088827;28;20206;-60
2021/04/13 13:42:12;;;;;;;3.90;2.33;;;11.40;99.90;;;;;;5088859;28;20287;-59